Terminal Aerodrome Forecast
Issued by NWS

Home | Current Version | Previous Version | Text Only | Print | Product List | Glossary On
Versions: 1 2 3 4 5 6 7 8 9 10 11 12 13 14 15 16 17 18 19 20 21 22 23 24 25
000
FTUS43 KDLH 261000 AAB
TAFBRD
TAF AMD
KBRD 261031Z 2611/2706 05003KT 4SM -SN OVC022
      TEMPO 2610/2614 1 1/2SM -SN OVC018
     FM261400 01010KT 2SM -SN BR OVC020
     FM261800 35014KT P6SM BKN030
     FM262200 34010KT P6SM SCT040=

USA.gov is the U.S. government's official web portal to all federal, state and local government web resources and services.